Hlavní strana
METAR-TAF:

METAR-TAF

Letiště :

Røros, Norsko

zeměpisná šířka: 62-35N, zeměpisná délka: 011-21E, výška: 626 m

Aktuální stav počasí

Zpráva byla vytvořena před 16 minutami, v 06:50 UTC
Jihovýchodní vítr 3 kt, proměnlivý mezi východojihovýchodním a jižním
Teplota -2°C
Vlhkost vzduchu 100%
Tlak 1007 hPa
Viditelnost 10 km a více
Skoro jasno ve výšce 400 ft
Oblačno až skoro zataženo ve výšce 900 ft

METAR: ENRO 130650Z 14003KT 110V180 9999 FEW004 BKN009 M02/M02 Q1007

Čas: 08:06 (07:06 UTC)

Předpověď počasí

Zpráva byla vytvořena před 2 hodinami a 6 minutami, v 05:00 UTC
Předpověď platná od 13 v 06 UTC do 13 v 15 UTC
vítr z různých směrů 3 kt
Viditelnost 10 km a více
Skoro jasno ve výšce 100 ft
Polojasno ve výšce 1000 ft
Pravděpodobnost 40% :
Dočasný
od 13 v 06 UTC do 13 v 15 UTC
Viditelnost: 0500 m
ve výšce 100 ft
mrznoucí mlha

TAF: ENRO 130500Z 1306/1315 VRB03KT 9999 FEW001 SCT010 PROB40 TEMPO 1306/1315 0500 FZFG VV001

Stav a předpovědi počasí z více než 4 000 letišť (zprávy METAR a TAF).

Červené a žluté tečky na mapě představují dostupné meteorologické stanice.

Když kurzor umístíte na tečku, zobrazí se název stanice.

Pak kliknutím zobrazíte stav a předpověď počasí.

Chcete-li změnit mapu, kliknutím na zelené tlačítko se znaménkem +mapu přiblížíte, kliknutím na zelené tlačítko se znaménkem – mapu oddálíte a kliknutím na zelené šipky přejdete na sousední mapy.


METAR-TAF: